EFW76D EGKK-LTBS
Flight info
| Callsign | EFW76D |
|---|---|
| Flight time | 3h 34m |
| Altitude | 35000 |
| Route | ODVIK2Z ODVIK Y311 DVR UL9 KONAN DCT KOK DCT REMBA DCT SPI DCT VIBOM DCT NOMBO DCT RIDAR DCT LATLO DCT OBEDI DCT VABEK UL603 OLOTA DCT RUGAS DCT RIKSO UP14 ODNOD UT491 SONUP SONUP1D |
| Aircraft | A320/M-SDFGHIJ1RWXY/SB1 |
Departure
| Time | 2026-05-04 10:08 |
|---|---|
| Airport | London Gatwick Airport (EGKK) |
Arrival
| Time | 2026-05-04 13:42 |
|---|---|
| Airport | Dalaman International Airport (LTBS) |
| Time | Latitude | Longitude | Altitude | Speed | Heading |
|---|---|---|---|---|---|
| 2026-05-04 09:29 | 51.15499 | -0.16904 | 212 ft | 0 kts | 348° |
| 2026-05-04 09:53 | 51.15498 | -0.16904 | 204 ft | 1 kts | 348° |
| 2026-05-04 09:53 | 51.15474 | -0.16895 | 216 ft | 4 kts | 348° |
| 2026-05-04 09:53 | 51.15454 | -0.16888 | 216 ft | 4 kts | 330° |
| 2026-05-04 09:53 | 51.15443 | -0.16863 | 209 ft | 4 kts | 259° |
| 2026-05-04 09:54 | 51.15448 | -0.16830 | 212 ft | 1 kts | 257° |
| 2026-05-04 09:54 | 51.15448 | -0.16829 | 212 ft | 0 kts | 257° |
| 2026-05-04 09:56 | 51.15448 | -0.16832 | 213 ft | 1 kts | 257° |
| 2026-05-04 09:56 | 51.15445 | -0.16848 | 207 ft | 2 kts | 257° |
| 2026-05-04 09:57 | 51.15441 | -0.16879 | 204 ft | 4 kts | 257° |
| 2026-05-04 09:57 | 51.15434 | -0.16931 | 204 ft | 6 kts | 257° |
| 2026-05-04 09:57 | 51.15423 | -0.17004 | 204 ft | 7 kts | 257° |
| 2026-05-04 09:57 | 51.15411 | -0.17089 | 208 ft | 8 kts | 257° |
| 2026-05-04 09:58 | 51.15389 | -0.17182 | 205 ft | 10 kts | 249° |
| 2026-05-04 09:58 | 51.15367 | -0.17290 | 208 ft | 11 kts | 253° |
| 2026-05-04 09:58 | 51.15319 | -0.17379 | 206 ft | 11 kts | 221° |
| 2026-05-04 10:00 | 51.15160 | -0.18514 | 212 ft | 15 kts | 257° |
| 2026-05-04 10:00 | 51.15137 | -0.18682 | 205 ft | 16 kts | 257° |
| 2026-05-04 10:02 | 51.14943 | -0.20091 | 203 ft | 21 kts | 257° |
| 2026-05-04 10:04 | 51.14780 | -0.21212 | 208 ft | 12 kts | 253° |
| 2026-05-04 10:04 | 51.14761 | -0.21346 | 204 ft | 13 kts | 257° |
| 2026-05-04 10:04 | 51.14687 | -0.21390 | 209 ft | 13 kts | 156° |
| 2026-05-04 10:04 | 51.14633 | -0.21331 | 206 ft | 7 kts | 159° |
| 2026-05-04 10:05 | 51.14610 | -0.21324 | 206 ft | 4 kts | 169° |
| 2026-05-04 10:05 | 51.14577 | -0.21309 | 207 ft | 6 kts | 160° |
| 2026-05-04 10:05 | 51.14536 | -0.21264 | 202 ft | 9 kts | 129° |
| 2026-05-04 10:05 | 51.14521 | -0.21164 | 202 ft | 10 kts | 85° |
| 2026-05-04 10:06 | 51.14561 | -0.20876 | 204 ft | 56 kts | 77° |
| 2026-05-04 10:06 | 51.14690 | -0.19943 | 209 ft | 114 kts | 77° |
| 2026-05-04 10:06 | 51.14898 | -0.18459 | 206 ft | 160 kts | 75° |
| 2026-05-04 10:08 | 51.16562 | -0.06373 | 2367 ft | 241 kts | 77° |
| 2026-05-04 10:08 | 51.16880 | -0.03675 | 2889 ft | 253 kts | 87° |
| 2026-05-04 10:08 | 51.16854 | -0.00846 | 3639 ft | 257 kts | 91° |
| 2026-05-04 10:08 | 51.16800 | 0.02029 | 4376 ft | 262 kts | 91° |
| 2026-05-04 10:09 | 51.16745 | 0.04952 | 5120 ft | 266 kts | 92° |
| 2026-05-04 10:09 | 51.16688 | 0.07918 | 5860 ft | 270 kts | 92° |
| 2026-05-04 10:09 | 51.16631 | 0.10933 | 6585 ft | 274 kts | 92° |
| 2026-05-04 10:09 | 51.16574 | 0.13986 | 7257 ft | 278 kts | 93° |
| 2026-05-04 10:10 | 51.16528 | 0.17093 | 7935 ft | 282 kts | 92° |
| 2026-05-04 10:10 | 51.16521 | 0.19931 | 8579 ft | 286 kts | 91° |
| 2026-05-04 10:10 | 51.16530 | 0.23149 | 9275 ft | 289 kts | 91° |
| 2026-05-04 10:10 | 51.16548 | 0.26376 | 9953 ft | 293 kts | 91° |
| 2026-05-04 10:11 | 51.16565 | 0.29646 | 10558 ft | 297 kts | 91° |
| 2026-05-04 10:11 | 51.16578 | 0.32949 | 11183 ft | 300 kts | 91° |
| 2026-05-04 10:11 | 51.16588 | 0.36295 | 11685 ft | 308 kts | 91° |
| 2026-05-04 10:11 | 51.16592 | 0.39826 | 11808 ft | 329 kts | 91° |
| 2026-05-04 10:12 | 51.16591 | 0.43573 | 11942 ft | 348 kts | 91° |
| 2026-05-04 10:12 | 51.16589 | 0.47454 | 12202 ft | 360 kts | 91° |
| 2026-05-04 10:12 | 51.16590 | 0.51531 | 12719 ft | 366 kts | 91° |
| 2026-05-04 10:12 | 51.16591 | 0.55599 | 13293 ft | 369 kts | 91° |
| 2026-05-04 10:13 | 51.16590 | 0.59650 | 13867 ft | 372 kts | 91° |
| 2026-05-04 10:13 | 51.16586 | 0.63786 | 14390 ft | 375 kts | 91° |
| 2026-05-04 10:13 | 51.16579 | 0.68013 | 14898 ft | 378 kts | 91° |
| 2026-05-04 10:13 | 51.16569 | 0.72160 | 15388 ft | 381 kts | 91° |
| 2026-05-04 10:14 | 51.16561 | 0.76394 | 15880 ft | 384 kts | 91° |
| 2026-05-04 10:14 | 51.16552 | 0.80661 | 16371 ft | 387 kts | 91° |
| 2026-05-04 10:16 | 51.16422 | 1.11471 | 19788 ft | 408 kts | 92° |
| 2026-05-04 10:16 | 51.16399 | 1.16017 | 20259 ft | 412 kts | 92° |
| 2026-05-04 10:16 | 51.16373 | 1.20592 | 20704 ft | 415 kts | 92° |
| 2026-05-04 10:16 | 51.16343 | 1.25201 | 21131 ft | 418 kts | 92° |
| 2026-05-04 10:17 | 51.16311 | 1.29845 | 21544 ft | 421 kts | 92° |
| 2026-05-04 10:17 | 51.16275 | 1.34524 | 21942 ft | 423 kts | 92° |
| 2026-05-04 10:19 | 51.14688 | 1.68024 | 24319 ft | 443 kts | 98° |
| 2026-05-04 10:19 | 51.14444 | 1.72920 | 24636 ft | 444 kts | 98° |
| 2026-05-04 10:19 | 51.14204 | 1.77832 | 24949 ft | 446 kts | 98° |
| 2026-05-04 10:19 | 51.13962 | 1.82761 | 25252 ft | 447 kts | 98° |
| 2026-05-04 10:20 | 51.13716 | 1.87706 | 25559 ft | 449 kts | 98° |
| 2026-05-04 10:20 | 51.13464 | 1.92672 | 25827 ft | 451 kts | 99° |
| 2026-05-04 10:20 | 51.13204 | 1.97665 | 26078 ft | 454 kts | 99° |
| 2026-05-04 10:20 | 51.12940 | 2.02680 | 26368 ft | 455 kts | 99° |
| 2026-05-04 10:21 | 51.12674 | 2.07703 | 26692 ft | 457 kts | 99° |
| 2026-05-04 10:21 | 51.12404 | 2.12750 | 26992 ft | 458 kts | 99° |
| 2026-05-04 10:21 | 51.12132 | 2.17796 | 27390 ft | 457 kts | 99° |
| 2026-05-04 10:21 | 51.11860 | 2.22824 | 27822 ft | 455 kts | 99° |
| 2026-05-04 10:22 | 51.11312 | 2.32829 | 28686 ft | 452 kts | 99° |
| 2026-05-04 10:22 | 51.11037 | 2.37801 | 29092 ft | 451 kts | 100° |
| 2026-05-04 10:22 | 51.10762 | 2.42702 | 29457 ft | 451 kts | 100° |
| 2026-05-04 10:23 | 51.10478 | 2.47668 | 29837 ft | 450 kts | 100° |
| 2026-05-04 10:23 | 51.10195 | 2.52625 | 30199 ft | 450 kts | 100° |
| 2026-05-04 10:25 | 51.05708 | 2.86001 | 32601 ft | 438 kts | 112° |
| 2026-05-04 10:25 | 51.04863 | 2.90655 | 32881 ft | 439 kts | 112° |
| 2026-05-04 10:25 | 51.04013 | 2.95315 | 33182 ft | 439 kts | 113° |
| 2026-05-04 10:25 | 51.03161 | 2.99969 | 33494 ft | 439 kts | 113° |
| 2026-05-04 10:26 | 51.02307 | 3.04617 | 33797 ft | 438 kts | 113° |
| 2026-05-04 10:26 | 51.01453 | 3.09260 | 34082 ft | 438 kts | 113° |
| 2026-05-04 10:26 | 51.00600 | 3.13899 | 34319 ft | 438 kts | 113° |
| 2026-05-04 10:26 | 50.99745 | 3.18537 | 34550 ft | 437 kts | 112° |
| 2026-05-04 10:27 | 50.98886 | 3.23166 | 34777 ft | 437 kts | 112° |
| 2026-05-04 10:27 | 50.98022 | 3.27785 | 34953 ft | 437 kts | 112° |
| 2026-05-04 10:27 | 50.97144 | 3.32475 | 34985 ft | 441 kts | 112° |
| 2026-05-04 10:28 | 50.95394 | 3.41797 | 34996 ft | 452 kts | 112° |
| 2026-05-04 10:28 | 50.93581 | 3.51438 | 34993 ft | 459 kts | 112° |
| 2026-05-04 10:29 | 50.91752 | 3.61158 | 34990 ft | 460 kts | 112° |
| 2026-05-04 10:29 | 50.89914 | 3.70870 | 34998 ft | 461 kts | 112° |
| 2026-05-04 10:30 | 50.88060 | 3.80586 | 34992 ft | 462 kts | 112° |
| 2026-05-04 10:30 | 50.86189 | 3.90332 | 34990 ft | 463 kts | 112° |
| 2026-05-04 10:31 | 50.84310 | 4.00083 | 35000 ft | 463 kts | 113° |
| 2026-05-04 10:32 | 50.77668 | 4.34146 | 35020 ft | 463 kts | 113° |
| 2026-05-04 10:33 | 50.75751 | 4.43839 | 35025 ft | 462 kts | 114° |
| 2026-05-04 10:33 | 50.73825 | 4.53512 | 35028 ft | 462 kts | 114° |
| 2026-05-04 10:34 | 50.71901 | 4.63177 | 35022 ft | 462 kts | 114° |
| 2026-05-04 10:34 | 50.69973 | 4.72846 | 34995 ft | 462 kts | 113° |
| 2026-05-04 10:35 | 50.68034 | 4.82492 | 35000 ft | 462 kts | 113° |
| 2026-05-04 10:35 | 50.66077 | 4.92135 | 35004 ft | 462 kts | 113° |
| 2026-05-04 10:36 | 50.64109 | 5.01773 | 35006 ft | 462 kts | 114° |
| 2026-05-04 10:36 | 50.62123 | 5.11394 | 35006 ft | 462 kts | 114° |
| 2026-05-04 10:37 | 50.60130 | 5.21002 | 34982 ft | 462 kts | 114° |
| 2026-05-04 10:37 | 50.58134 | 5.30629 | 34988 ft | 463 kts | 114° |
| 2026-05-04 10:39 | 50.51377 | 5.62652 | 34976 ft | 461 kts | 117° |
| 2026-05-04 10:40 | 50.48850 | 5.71866 | 34981 ft | 459 kts | 119° |
| 2026-05-04 10:40 | 50.45889 | 5.82558 | 34980 ft | 459 kts | 119° |
| 2026-05-04 10:41 | 50.43747 | 5.90250 | 34990 ft | 459 kts | 119° |
| 2026-05-04 10:41 | 50.41187 | 5.99413 | 34990 ft | 459 kts | 120° |
| 2026-05-04 10:42 | 50.38620 | 6.08574 | 34964 ft | 459 kts | 120° |
| 2026-05-04 10:42 | 50.36039 | 6.17744 | 34970 ft | 460 kts | 120° |
| 2026-05-04 10:43 | 50.33471 | 6.26837 | 34978 ft | 460 kts | 120° |
| 2026-05-04 10:45 | 50.23041 | 6.63381 | 34979 ft | 460 kts | 120° |
| 2026-05-04 10:45 | 50.20398 | 6.72537 | 35001 ft | 460 kts | 120° |
| 2026-05-04 10:46 | 50.17652 | 6.82040 | 35024 ft | 459 kts | 120° |
| 2026-05-04 10:46 | 50.15153 | 6.90654 | 35010 ft | 459 kts | 120° |
| 2026-05-04 10:47 | 50.12509 | 6.99723 | 35016 ft | 460 kts | 120° |
| 2026-05-04 10:47 | 50.09841 | 7.08847 | 35020 ft | 460 kts | 120° |
| 2026-05-04 10:49 | 49.99151 | 7.45031 | 35007 ft | 461 kts | 120° |
| 2026-05-04 10:50 | 49.96469 | 7.54020 | 34997 ft | 462 kts | 120° |
| 2026-05-04 10:52 | 49.85614 | 7.90159 | 35008 ft | 461 kts | 120° |
| 2026-05-04 10:52 | 49.82884 | 7.99147 | 35013 ft | 461 kts | 120° |
| 2026-05-04 10:54 | 49.71910 | 8.34943 | 35020 ft | 460 kts | 120° |
| 2026-05-04 10:56 | 49.60829 | 8.70589 | 35035 ft | 460 kts | 120° |
| 2026-05-04 10:57 | 49.57966 | 8.79719 | 35033 ft | 460 kts | 120° |
| 2026-05-04 10:57 | 49.55259 | 8.88340 | 35031 ft | 460 kts | 121° |
| 2026-05-04 10:58 | 49.52461 | 8.97185 | 35031 ft | 460 kts | 121° |
| 2026-05-04 10:58 | 49.49648 | 9.06026 | 35007 ft | 460 kts | 121° |
| 2026-05-04 10:59 | 49.46843 | 9.14787 | 35010 ft | 459 kts | 123° |
| 2026-05-04 10:59 | 49.43446 | 9.23011 | 35014 ft | 455 kts | 128° |
| 2026-05-04 11:00 | 49.39973 | 9.31148 | 35016 ft | 456 kts | 128° |
| 2026-05-04 11:02 | 49.26043 | 9.63623 | 35023 ft | 456 kts | 128° |
| 2026-05-04 11:05 | 48.97979 | 10.21550 | 35019 ft | 449 kts | 139° |
| 2026-05-04 11:06 | 48.93557 | 10.28253 | 35032 ft | 449 kts | 139° |
| 2026-05-04 11:06 | 48.89128 | 10.34960 | 35036 ft | 449 kts | 139° |
| 2026-05-04 11:10 | 48.58158 | 10.81895 | 35037 ft | 455 kts | 129° |
| 2026-05-04 11:12 | 48.44147 | 11.13876 | 35026 ft | 457 kts | 127° |
| 2026-05-04 11:12 | 48.40625 | 11.21855 | 35028 ft | 457 kts | 127° |
| 2026-05-04 11:13 | 48.37094 | 11.29821 | 35021 ft | 457 kts | 127° |
| 2026-05-04 11:13 | 48.33562 | 11.37773 | 35021 ft | 458 kts | 127° |
| 2026-05-04 11:16 | 48.15925 | 11.77196 | 35021 ft | 459 kts | 127° |
| 2026-05-04 11:16 | 48.12351 | 11.85107 | 35022 ft | 459 kts | 127° |
| 2026-05-04 11:17 | 48.08771 | 11.93021 | 35021 ft | 459 kts | 127° |
| 2026-05-04 11:19 | 47.94379 | 12.24593 | 35013 ft | 460 kts | 127° |
| 2026-05-04 11:19 | 47.90767 | 12.32450 | 35020 ft | 459 kts | 127° |
| 2026-05-04 11:20 | 47.87149 | 12.40291 | 35019 ft | 459 kts | 127° |
| 2026-05-04 11:20 | 47.83530 | 12.48129 | 35021 ft | 459 kts | 127° |
| 2026-05-04 11:22 | 47.68994 | 12.79317 | 35006 ft | 458 kts | 130° |
| 2026-05-04 11:23 | 47.64662 | 12.86167 | 35009 ft | 455 kts | 138° |
| 2026-05-04 11:25 | 47.48970 | 13.09352 | 35011 ft | 455 kts | 137° |
| 2026-05-04 11:25 | 47.44469 | 13.15942 | 35019 ft | 455 kts | 137° |
| 2026-05-04 11:27 | 47.25439 | 13.47103 | 35042 ft | 457 kts | 129° |
| 2026-05-04 11:28 | 47.21592 | 13.54459 | 35046 ft | 457 kts | 129° |
| 2026-05-04 11:28 | 47.17718 | 13.61867 | 35033 ft | 457 kts | 129° |
| 2026-05-04 11:29 | 47.13837 | 13.69268 | 35055 ft | 457 kts | 129° |
| 2026-05-04 11:29 | 47.09943 | 13.76660 | 35053 ft | 458 kts | 129° |
| 2026-05-04 11:33 | 46.82425 | 14.28349 | 35060 ft | 460 kts | 129° |
| 2026-05-04 11:33 | 46.79139 | 14.34453 | 35061 ft | 460 kts | 129° |
| 2026-05-04 11:34 | 46.75177 | 14.41803 | 35067 ft | 461 kts | 129° |
| 2026-05-04 11:34 | 46.71217 | 14.49145 | 35050 ft | 461 kts | 129° |
| 2026-05-04 11:35 | 46.67239 | 14.56483 | 35060 ft | 462 kts | 129° |
| 2026-05-04 11:35 | 46.63251 | 14.63804 | 35061 ft | 462 kts | 130° |
| 2026-05-04 11:36 | 46.59256 | 14.71136 | 35055 ft | 462 kts | 129° |
| 2026-05-04 11:36 | 46.55261 | 14.78455 | 35055 ft | 462 kts | 129° |
| 2026-05-04 11:37 | 46.51258 | 14.85768 | 35062 ft | 462 kts | 129° |
| 2026-05-04 11:37 | 46.47251 | 14.93073 | 35061 ft | 463 kts | 129° |
| 2026-05-04 11:38 | 46.43231 | 15.00365 | 35073 ft | 462 kts | 129° |
| 2026-05-04 11:38 | 46.39213 | 15.07646 | 35067 ft | 463 kts | 129° |
| 2026-05-04 11:39 | 46.35176 | 15.14939 | 35049 ft | 464 kts | 129° |
| 2026-05-04 11:41 | 46.20985 | 15.40416 | 35083 ft | 465 kts | 129° |
| 2026-05-04 11:41 | 46.16914 | 15.47682 | 35084 ft | 465 kts | 129° |
| 2026-05-04 11:42 | 46.12837 | 15.54932 | 35089 ft | 465 kts | 129° |
| 2026-05-04 11:42 | 46.08755 | 15.62179 | 35092 ft | 466 kts | 129° |
| 2026-05-04 11:43 | 46.04677 | 15.69419 | 35096 ft | 466 kts | 129° |
| 2026-05-04 11:43 | 46.00584 | 15.76655 | 35099 ft | 466 kts | 129° |
| 2026-05-04 11:44 | 45.96489 | 15.83883 | 35100 ft | 466 kts | 129° |
| 2026-05-04 11:44 | 45.92384 | 15.91099 | 35102 ft | 466 kts | 129° |
| 2026-05-04 11:45 | 45.88269 | 15.98301 | 35103 ft | 466 kts | 129° |
| 2026-05-04 11:45 | 45.84152 | 16.05488 | 35099 ft | 467 kts | 129° |
| 2026-05-04 11:46 | 45.80030 | 16.12671 | 35092 ft | 466 kts | 129° |
| 2026-05-04 11:46 | 45.75910 | 16.19850 | 35092 ft | 467 kts | 129° |
| 2026-05-04 11:47 | 45.71781 | 16.27019 | 35097 ft | 467 kts | 129° |
| 2026-05-04 11:47 | 45.67641 | 16.34181 | 35101 ft | 467 kts | 129° |
| 2026-05-04 11:48 | 45.63507 | 16.41330 | 35095 ft | 467 kts | 129° |
| 2026-05-04 11:48 | 45.59363 | 16.48475 | 35102 ft | 467 kts | 129° |
| 2026-05-04 11:49 | 45.55206 | 16.55608 | 35107 ft | 467 kts | 129° |
| 2026-05-04 11:49 | 45.51041 | 16.62738 | 35120 ft | 467 kts | 129° |
| 2026-05-04 11:50 | 45.46873 | 16.69846 | 35116 ft | 468 kts | 129° |
| 2026-05-04 11:50 | 45.42704 | 16.76955 | 35109 ft | 467 kts | 129° |
| 2026-05-04 11:51 | 45.38534 | 16.84056 | 35123 ft | 467 kts | 129° |
| 2026-05-04 11:51 | 45.34356 | 16.91135 | 35133 ft | 467 kts | 129° |
| 2026-05-04 11:52 | 45.30179 | 16.98193 | 35133 ft | 466 kts | 129° |
| 2026-05-04 11:52 | 45.26007 | 17.05238 | 35118 ft | 466 kts | 129° |
| 2026-05-04 11:53 | 45.21832 | 17.12275 | 35114 ft | 466 kts | 129° |
| 2026-05-04 11:53 | 45.17650 | 17.19294 | 35118 ft | 466 kts | 129° |
| 2026-05-04 11:55 | 45.00865 | 17.47296 | 35127 ft | 467 kts | 129° |
| 2026-05-04 11:56 | 44.96658 | 17.54279 | 35127 ft | 467 kts | 129° |
| 2026-05-04 11:56 | 44.92431 | 17.61262 | 35126 ft | 468 kts | 129° |
| 2026-05-04 11:57 | 44.88209 | 17.68233 | 35124 ft | 467 kts | 129° |
| 2026-05-04 11:57 | 44.83979 | 17.75194 | 35130 ft | 467 kts | 129° |
| 2026-05-04 11:58 | 44.79749 | 17.82142 | 35137 ft | 467 kts | 129° |
| 2026-05-04 11:58 | 44.75512 | 17.89081 | 35133 ft | 467 kts | 129° |
| 2026-05-04 11:59 | 44.71273 | 17.96010 | 35112 ft | 467 kts | 129° |
| 2026-05-04 11:59 | 44.67025 | 18.02928 | 35117 ft | 468 kts | 129° |
| 2026-05-04 12:00 | 44.62765 | 18.09851 | 35123 ft | 468 kts | 129° |
| 2026-05-04 12:00 | 44.58502 | 18.16765 | 35126 ft | 469 kts | 129° |
| 2026-05-04 12:01 | 44.54230 | 18.23667 | 35129 ft | 469 kts | 129° |
| 2026-05-04 12:02 | 44.39234 | 18.47803 | 35122 ft | 471 kts | 129° |
| 2026-05-04 12:03 | 44.34928 | 18.54696 | 35123 ft | 471 kts | 129° |
| 2026-05-04 12:03 | 44.30611 | 18.61586 | 35125 ft | 471 kts | 129° |
| 2026-05-04 12:04 | 44.26293 | 18.68462 | 35138 ft | 471 kts | 129° |
| 2026-05-04 12:04 | 44.21971 | 18.75338 | 35142 ft | 472 kts | 129° |
| 2026-05-04 12:05 | 44.17636 | 18.82204 | 35138 ft | 472 kts | 130° |
| 2026-05-04 12:05 | 44.13298 | 18.89052 | 35148 ft | 472 kts | 129° |
| 2026-05-04 12:06 | 44.08956 | 18.95911 | 35147 ft | 472 kts | 129° |
| 2026-05-04 12:06 | 44.04610 | 19.02768 | 35145 ft | 473 kts | 129° |
| 2026-05-04 12:07 | 44.00249 | 19.09606 | 35144 ft | 473 kts | 129° |
| 2026-05-04 12:07 | 43.95875 | 19.16438 | 35161 ft | 473 kts | 129° |
| 2026-05-04 12:08 | 43.91499 | 19.23265 | 35152 ft | 474 kts | 129° |
| 2026-05-04 12:08 | 43.87117 | 19.30092 | 35150 ft | 474 kts | 129° |
| 2026-05-04 12:09 | 43.82733 | 19.36912 | 35150 ft | 474 kts | 129° |
| 2026-05-04 12:09 | 43.78340 | 19.43722 | 35168 ft | 474 kts | 129° |
| 2026-05-04 12:10 | 43.73942 | 19.50532 | 35155 ft | 474 kts | 129° |
| 2026-05-04 12:10 | 43.69543 | 19.57322 | 35151 ft | 475 kts | 129° |
| 2026-05-04 12:11 | 43.65127 | 19.64116 | 35150 ft | 475 kts | 129° |
| 2026-05-04 12:11 | 43.60709 | 19.70901 | 35169 ft | 476 kts | 129° |
| 2026-05-04 12:12 | 43.56283 | 19.77687 | 35158 ft | 476 kts | 129° |
| 2026-05-04 12:12 | 43.51859 | 19.84459 | 35157 ft | 476 kts | 129° |
| 2026-05-04 12:14 | 43.34845 | 20.10313 | 35139 ft | 476 kts | 129° |
| 2026-05-04 12:15 | 43.30384 | 20.17056 | 35144 ft | 477 kts | 129° |
| 2026-05-04 12:15 | 43.25918 | 20.23800 | 35168 ft | 478 kts | 129° |
| 2026-05-04 12:16 | 43.21438 | 20.30539 | 35169 ft | 478 kts | 129° |
| 2026-05-04 12:16 | 43.16952 | 20.37266 | 35160 ft | 478 kts | 129° |
| 2026-05-04 12:17 | 43.12460 | 20.43994 | 35162 ft | 479 kts | 129° |
| 2026-05-04 12:17 | 43.07962 | 20.50720 | 35178 ft | 479 kts | 129° |
| 2026-05-04 12:18 | 43.03449 | 20.57446 | 35161 ft | 480 kts | 129° |
| 2026-05-04 12:18 | 42.98905 | 20.64126 | 35158 ft | 481 kts | 131° |
| 2026-05-04 12:19 | 42.94109 | 20.70502 | 35155 ft | 482 kts | 134° |
| 2026-05-04 12:19 | 42.89188 | 20.76717 | 35155 ft | 482 kts | 134° |
| 2026-05-04 12:20 | 42.84293 | 20.82971 | 35180 ft | 482 kts | 133° |
| 2026-05-04 12:20 | 42.79452 | 20.89266 | 35182 ft | 481 kts | 133° |
| 2026-05-04 12:21 | 42.74634 | 20.95561 | 35181 ft | 480 kts | 133° |
| 2026-05-04 12:21 | 42.69810 | 21.01825 | 35181 ft | 479 kts | 133° |
| 2026-05-04 12:22 | 42.64979 | 21.08062 | 35182 ft | 479 kts | 133° |
| 2026-05-04 12:22 | 42.60141 | 21.14293 | 35202 ft | 479 kts | 133° |
| 2026-05-04 12:23 | 42.55299 | 21.20505 | 35191 ft | 479 kts | 133° |
| 2026-05-04 12:23 | 42.50466 | 21.26706 | 35181 ft | 478 kts | 133° |
| 2026-05-04 12:24 | 42.45627 | 21.32894 | 35168 ft | 478 kts | 133° |
| 2026-05-04 12:24 | 42.40783 | 21.39071 | 35157 ft | 478 kts | 133° |
| 2026-05-04 12:25 | 42.35945 | 21.45247 | 35143 ft | 479 kts | 133° |
| 2026-05-04 12:25 | 42.31093 | 21.51424 | 35138 ft | 479 kts | 133° |
| 2026-05-04 12:26 | 42.26230 | 21.57589 | 35127 ft | 480 kts | 133° |
| 2026-05-04 12:26 | 42.21364 | 21.63754 | 35125 ft | 479 kts | 133° |
| 2026-05-04 12:27 | 42.16601 | 21.70039 | 35126 ft | 479 kts | 131° |
| 2026-05-04 12:27 | 42.11887 | 21.76395 | 35127 ft | 479 kts | 131° |
| 2026-05-04 12:28 | 42.07151 | 21.82716 | 35148 ft | 480 kts | 131° |
| 2026-05-04 12:28 | 42.02386 | 21.89000 | 35139 ft | 480 kts | 132° |
| 2026-05-04 12:29 | 41.97620 | 21.95262 | 35132 ft | 479 kts | 132° |
| 2026-05-04 12:29 | 41.92854 | 22.01527 | 35126 ft | 479 kts | 132° |
| 2026-05-04 12:30 | 41.88090 | 22.07779 | 35131 ft | 479 kts | 132° |
| 2026-05-04 12:30 | 41.83324 | 22.14024 | 35151 ft | 479 kts | 132° |
| 2026-05-04 12:31 | 41.78552 | 22.20259 | 35143 ft | 479 kts | 132° |
| 2026-05-04 12:31 | 41.73781 | 22.26470 | 35141 ft | 478 kts | 132° |
| 2026-05-04 12:32 | 41.66632 | 22.35768 | 35135 ft | 477 kts | 132° |
| 2026-05-04 12:33 | 41.61868 | 22.41946 | 35131 ft | 477 kts | 133° |
| 2026-05-04 12:33 | 41.57097 | 22.48109 | 35145 ft | 477 kts | 133° |
| 2026-05-04 12:34 | 41.52333 | 22.54258 | 35135 ft | 475 kts | 133° |
| 2026-05-04 12:34 | 41.47577 | 22.60373 | 35124 ft | 475 kts | 133° |
| 2026-05-04 12:35 | 41.42858 | 22.66438 | 35124 ft | 475 kts | 133° |
| 2026-05-04 12:35 | 41.38105 | 22.72536 | 35118 ft | 475 kts | 133° |
| 2026-05-04 12:36 | 41.33374 | 22.78655 | 35140 ft | 473 kts | 129° |
| 2026-05-04 12:36 | 41.29037 | 22.85194 | 35135 ft | 470 kts | 128° |
| 2026-05-04 12:37 | 41.24799 | 22.91806 | 35125 ft | 469 kts | 127° |
| 2026-05-04 12:37 | 41.20571 | 22.98404 | 35127 ft | 469 kts | 128° |
| 2026-05-04 12:38 | 41.16313 | 23.04962 | 35126 ft | 469 kts | 128° |
| 2026-05-04 12:38 | 41.12040 | 23.11497 | 35135 ft | 468 kts | 128° |
| 2026-05-04 12:39 | 41.07789 | 23.18007 | 35142 ft | 466 kts | 128° |
| 2026-05-04 12:39 | 41.03557 | 23.24478 | 35136 ft | 464 kts | 129° |
| 2026-05-04 12:40 | 40.99328 | 23.30923 | 35132 ft | 463 kts | 128° |
| 2026-05-04 12:40 | 40.95094 | 23.37359 | 35109 ft | 464 kts | 128° |
| 2026-05-04 12:41 | 40.90851 | 23.43799 | 35126 ft | 465 kts | 129° |
| 2026-05-04 12:41 | 40.86612 | 23.50221 | 35136 ft | 462 kts | 129° |
| 2026-05-04 12:42 | 40.82394 | 23.56598 | 35130 ft | 460 kts | 129° |
| 2026-05-04 12:42 | 40.78184 | 23.62950 | 35126 ft | 459 kts | 129° |
| 2026-05-04 12:43 | 40.73989 | 23.69276 | 35128 ft | 458 kts | 129° |
| 2026-05-04 12:43 | 40.69795 | 23.75577 | 35130 ft | 457 kts | 129° |
| 2026-05-04 12:44 | 40.65599 | 23.81866 | 35131 ft | 457 kts | 129° |
| 2026-05-04 12:44 | 40.61400 | 23.88137 | 35126 ft | 456 kts | 129° |
| 2026-05-04 12:45 | 40.57208 | 23.94386 | 35124 ft | 455 kts | 129° |
| 2026-05-04 12:45 | 40.53020 | 24.00625 | 35120 ft | 455 kts | 129° |
| 2026-05-04 12:46 | 40.48838 | 24.06861 | 35123 ft | 455 kts | 129° |
| 2026-05-04 12:46 | 40.44661 | 24.13064 | 35132 ft | 453 kts | 130° |
| 2026-05-04 12:47 | 40.40493 | 24.19234 | 35135 ft | 451 kts | 130° |
| 2026-05-04 12:47 | 40.36331 | 24.25377 | 35114 ft | 451 kts | 130° |
| 2026-05-04 12:48 | 40.32159 | 24.31516 | 35108 ft | 451 kts | 130° |
| 2026-05-04 12:48 | 40.27993 | 24.37656 | 35113 ft | 451 kts | 130° |
| 2026-05-04 12:49 | 40.23832 | 24.43790 | 35124 ft | 450 kts | 130° |
| 2026-05-04 12:49 | 40.19673 | 24.49881 | 35126 ft | 448 kts | 130° |
| 2026-05-04 12:50 | 40.15516 | 24.55944 | 35124 ft | 447 kts | 130° |
| 2026-05-04 12:50 | 40.11375 | 24.61991 | 35127 ft | 446 kts | 130° |
| 2026-05-04 12:51 | 40.07238 | 24.68035 | 35124 ft | 446 kts | 130° |
| 2026-05-04 12:51 | 40.03101 | 24.74056 | 35116 ft | 445 kts | 130° |
| 2026-05-04 12:52 | 39.98956 | 24.80069 | 35116 ft | 445 kts | 130° |
| 2026-05-04 12:52 | 39.94814 | 24.86066 | 35121 ft | 445 kts | 130° |
| 2026-05-04 12:53 | 39.90669 | 24.92059 | 35119 ft | 445 kts | 130° |
| 2026-05-04 12:53 | 39.86521 | 24.98041 | 35123 ft | 445 kts | 130° |
| 2026-05-04 12:54 | 39.82381 | 25.04016 | 35128 ft | 444 kts | 130° |
| 2026-05-04 12:54 | 39.78237 | 25.09974 | 35131 ft | 444 kts | 130° |
| 2026-05-04 12:55 | 39.74085 | 25.15937 | 35109 ft | 445 kts | 130° |
| 2026-05-04 12:55 | 39.69924 | 25.21893 | 35105 ft | 445 kts | 130° |
| 2026-05-04 12:56 | 39.65761 | 25.27849 | 35102 ft | 446 kts | 130° |
| 2026-05-04 12:56 | 39.61587 | 25.33799 | 35109 ft | 446 kts | 130° |
| 2026-05-04 12:57 | 39.57412 | 25.39732 | 35108 ft | 445 kts | 130° |
| 2026-05-04 12:57 | 39.53944 | 25.44654 | 35110 ft | 444 kts | 130° |
| 2026-05-04 12:58 | 39.49778 | 25.50566 | 35117 ft | 444 kts | 130° |
| 2026-05-04 12:58 | 39.45606 | 25.56473 | 35096 ft | 445 kts | 130° |
| 2026-05-04 12:59 | 39.41428 | 25.62379 | 35092 ft | 445 kts | 130° |
| 2026-05-04 12:59 | 39.37238 | 25.68281 | 35096 ft | 445 kts | 130° |
| 2026-05-04 13:00 | 39.33052 | 25.74176 | 35096 ft | 445 kts | 130° |
| 2026-05-04 13:00 | 39.28864 | 25.80067 | 35093 ft | 445 kts | 130° |
| 2026-05-04 13:01 | 39.24670 | 25.85952 | 35093 ft | 445 kts | 130° |
| 2026-05-04 13:01 | 39.20475 | 25.91826 | 35087 ft | 445 kts | 130° |
| 2026-05-04 13:02 | 39.16276 | 25.97696 | 35081 ft | 446 kts | 130° |
| 2026-05-04 13:02 | 39.12054 | 26.03581 | 35061 ft | 448 kts | 130° |
| 2026-05-04 13:03 | 39.07821 | 26.09464 | 35058 ft | 449 kts | 130° |
| 2026-05-04 13:03 | 39.03576 | 26.15358 | 35057 ft | 449 kts | 130° |
| 2026-05-04 13:04 | 38.99323 | 26.21253 | 35056 ft | 450 kts | 130° |
| 2026-05-04 13:04 | 38.95044 | 26.27187 | 35073 ft | 450 kts | 130° |
| 2026-05-04 13:05 | 38.90777 | 26.33083 | 35061 ft | 451 kts | 131° |
| 2026-05-04 13:05 | 38.86537 | 26.39011 | 35061 ft | 450 kts | 126° |
| 2026-05-04 13:06 | 38.83447 | 26.45898 | 35051 ft | 445 kts | 108° |
| 2026-05-04 13:06 | 38.82092 | 26.53576 | 35050 ft | 442 kts | 96° |
| 2026-05-04 13:07 | 38.81145 | 26.61365 | 35051 ft | 443 kts | 97° |
| 2026-05-04 13:07 | 38.80172 | 26.69181 | 35042 ft | 445 kts | 97° |
| 2026-05-04 13:08 | 38.79188 | 26.77011 | 35037 ft | 445 kts | 97° |
| 2026-05-04 13:08 | 38.78207 | 26.84798 | 35034 ft | 446 kts | 97° |
| 2026-05-04 13:09 | 38.77133 | 26.92679 | 35032 ft | 448 kts | 103° |
| 2026-05-04 13:09 | 38.74640 | 27.00019 | 35023 ft | 454 kts | 121° |
| 2026-05-04 13:10 | 38.70892 | 27.06497 | 35026 ft | 456 kts | 125° |
| 2026-05-04 13:10 | 38.67047 | 27.13035 | 35027 ft | 457 kts | 125° |
| 2026-05-04 13:11 | 38.63245 | 27.19501 | 35033 ft | 458 kts | 125° |
| 2026-05-04 13:11 | 38.59381 | 27.26056 | 35021 ft | 459 kts | 125° |
| 2026-05-04 13:12 | 38.55549 | 27.32522 | 35013 ft | 460 kts | 125° |
| 2026-05-04 13:12 | 38.51669 | 27.39030 | 35010 ft | 461 kts | 125° |
| 2026-05-04 13:13 | 38.47798 | 27.45550 | 35019 ft | 461 kts | 125° |
| 2026-05-04 13:13 | 38.43923 | 27.52085 | 35016 ft | 462 kts | 125° |
| 2026-05-04 13:14 | 38.40036 | 27.58613 | 35016 ft | 462 kts | 125° |
| 2026-05-04 13:14 | 38.36136 | 27.65134 | 35012 ft | 463 kts | 125° |
| 2026-05-04 13:15 | 38.32225 | 27.71663 | 35012 ft | 463 kts | 126° |
| 2026-05-04 13:15 | 38.28276 | 27.78222 | 35006 ft | 464 kts | 127° |
| 2026-05-04 13:16 | 38.23548 | 27.83833 | 35011 ft | 468 kts | 144° |
| 2026-05-04 13:16 | 38.18215 | 27.88594 | 34846 ft | 469 kts | 144° |
| 2026-05-04 13:16 | 38.15549 | 27.90982 | 34395 ft | 469 kts | 143° |
| 2026-05-04 13:17 | 38.12870 | 27.93383 | 33408 ft | 474 kts | 143° |
| 2026-05-04 13:17 | 38.10171 | 27.95803 | 32480 ft | 476 kts | 142° |
| 2026-05-04 13:17 | 38.07463 | 27.98231 | 31627 ft | 477 kts | 142° |
| 2026-05-04 13:17 | 38.04770 | 28.00641 | 31139 ft | 470 kts | 142° |
| 2026-05-04 13:18 | 38.02103 | 28.03020 | 30539 ft | 467 kts | 142° |
| 2026-05-04 13:18 | 37.99456 | 28.05378 | 29941 ft | 464 kts | 142° |
| 2026-05-04 13:18 | 37.96824 | 28.07723 | 29337 ft | 461 kts | 142° |
| 2026-05-04 13:18 | 37.94214 | 28.10044 | 28748 ft | 457 kts | 142° |
| 2026-05-04 13:19 | 37.91624 | 28.12346 | 28166 ft | 452 kts | 142° |
| 2026-05-04 13:19 | 37.89060 | 28.14623 | 27587 ft | 449 kts | 143° |
| 2026-05-04 13:19 | 37.86511 | 28.16886 | 27015 ft | 446 kts | 143° |
| 2026-05-04 13:19 | 37.83976 | 28.19135 | 26451 ft | 444 kts | 143° |
| 2026-05-04 13:20 | 37.81450 | 28.21374 | 25892 ft | 442 kts | 143° |
| 2026-05-04 13:20 | 37.78938 | 28.23598 | 25349 ft | 440 kts | 143° |
| 2026-05-04 13:20 | 37.76433 | 28.25816 | 24801 ft | 439 kts | 144° |
| 2026-05-04 13:20 | 37.73939 | 28.28023 | 24283 ft | 436 kts | 144° |
| 2026-05-04 13:21 | 37.71455 | 28.30220 | 23769 ft | 435 kts | 144° |
| 2026-05-04 13:21 | 37.68982 | 28.32406 | 23224 ft | 433 kts | 144° |
| 2026-05-04 13:21 | 37.66525 | 28.34576 | 22737 ft | 430 kts | 144° |
| 2026-05-04 13:21 | 37.64079 | 28.36731 | 22243 ft | 428 kts | 144° |
| 2026-05-04 13:22 | 37.61642 | 28.38878 | 21745 ft | 427 kts | 144° |
| 2026-05-04 13:22 | 37.59213 | 28.41017 | 21242 ft | 426 kts | 144° |
| 2026-05-04 13:22 | 37.56782 | 28.43154 | 20734 ft | 425 kts | 144° |
| 2026-05-04 13:22 | 37.54356 | 28.45280 | 20203 ft | 425 kts | 144° |
| 2026-05-04 13:23 | 37.51927 | 28.47402 | 19666 ft | 424 kts | 144° |
| 2026-05-04 13:23 | 37.49521 | 28.49551 | 19120 ft | 424 kts | 141° |
| 2026-05-04 13:23 | 37.47380 | 28.52084 | 18739 ft | 419 kts | 132° |
| 2026-05-04 13:23 | 37.45405 | 28.54715 | 18490 ft | 410 kts | 132° |
| 2026-05-04 13:24 | 37.43445 | 28.57296 | 18189 ft | 406 kts | 133° |
| 2026-05-04 13:24 | 37.41490 | 28.59852 | 17897 ft | 405 kts | 133° |
| 2026-05-04 13:24 | 37.39538 | 28.62394 | 17624 ft | 403 kts | 133° |
| 2026-05-04 13:25 | 37.35667 | 28.67430 | 17081 ft | 399 kts | 133° |
| 2026-05-04 13:25 | 37.33748 | 28.69931 | 16798 ft | 397 kts | 133° |
| 2026-05-04 13:25 | 37.31836 | 28.72426 | 16517 ft | 395 kts | 132° |
| 2026-05-04 13:25 | 37.29933 | 28.74909 | 16258 ft | 394 kts | 132° |
| 2026-05-04 13:26 | 37.28038 | 28.77385 | 15987 ft | 392 kts | 132° |
| 2026-05-04 13:26 | 37.26153 | 28.79847 | 15719 ft | 390 kts | 132° |
| 2026-05-04 13:26 | 37.24277 | 28.82297 | 15454 ft | 389 kts | 132° |
| 2026-05-04 13:26 | 37.22381 | 28.84713 | 15190 ft | 388 kts | 136° |
| 2026-05-04 13:27 | 37.20227 | 28.86738 | 14929 ft | 388 kts | 148° |
| 2026-05-04 13:27 | 37.17814 | 28.88211 | 14649 ft | 385 kts | 159° |
| 2026-05-04 13:27 | 37.15332 | 28.89443 | 14392 ft | 382 kts | 159° |
| 2026-05-04 13:27 | 37.12868 | 28.90675 | 14139 ft | 380 kts | 158° |
| 2026-05-04 13:28 | 37.10422 | 28.91903 | 13878 ft | 378 kts | 158° |
| 2026-05-04 13:28 | 37.07980 | 28.93132 | 13605 ft | 377 kts | 158° |
| 2026-05-04 13:28 | 37.05553 | 28.94353 | 13340 ft | 375 kts | 158° |
| 2026-05-04 13:28 | 37.03165 | 28.95555 | 13155 ft | 364 kts | 158° |
| 2026-05-04 13:29 | 37.00860 | 28.96712 | 13017 ft | 347 kts | 158° |
| 2026-05-04 13:29 | 36.98660 | 28.97813 | 12573 ft | 336 kts | 158° |
| 2026-05-04 13:29 | 36.96496 | 28.98836 | 12194 ft | 330 kts | 164° |
| 2026-05-04 13:29 | 36.94247 | 28.99339 | 11970 ft | 327 kts | 179° |
| 2026-05-04 13:30 | 36.91983 | 28.99203 | 11548 ft | 327 kts | 193° |
| 2026-05-04 13:30 | 36.89797 | 28.98501 | 11236 ft | 322 kts | 199° |
| 2026-05-04 13:30 | 36.87647 | 28.97747 | 10737 ft | 319 kts | 199° |
| 2026-05-04 13:30 | 36.85549 | 28.97025 | 10234 ft | 315 kts | 198° |
| 2026-05-04 13:31 | 36.83418 | 28.96298 | 9790 ft | 314 kts | 198° |
| 2026-05-04 13:31 | 36.81331 | 28.95584 | 9330 ft | 316 kts | 198° |
| 2026-05-04 13:31 | 36.79194 | 28.94852 | 8952 ft | 321 kts | 198° |
| 2026-05-04 13:31 | 36.77058 | 28.94122 | 8745 ft | 314 kts | 198° |
| 2026-05-04 13:32 | 36.74959 | 28.93407 | 8201 ft | 312 kts | 198° |
| 2026-05-04 13:32 | 36.72884 | 28.92699 | 7718 ft | 305 kts | 198° |
| 2026-05-04 13:32 | 36.70856 | 28.92008 | 7182 ft | 300 kts | 198° |
| 2026-05-04 13:32 | 36.68856 | 28.91322 | 6621 ft | 296 kts | 198° |
| 2026-05-04 13:33 | 36.66930 | 28.90665 | 6463 ft | 278 kts | 198° |
| 2026-05-04 13:33 | 36.65089 | 28.90039 | 6339 ft | 271 kts | 199° |
| 2026-05-04 13:33 | 36.63290 | 28.89426 | 6204 ft | 264 kts | 199° |
| 2026-05-04 13:33 | 36.61526 | 28.88820 | 6008 ft | 262 kts | 199° |
| 2026-05-04 13:34 | 36.59762 | 28.88212 | 5752 ft | 264 kts | 199° |
| 2026-05-04 13:34 | 36.58007 | 28.87609 | 5615 ft | 258 kts | 199° |
| 2026-05-04 13:34 | 36.56293 | 28.87022 | 5277 ft | 255 kts | 199° |
| 2026-05-04 13:34 | 36.54576 | 28.86434 | 4971 ft | 257 kts | 199° |
| 2026-05-04 13:35 | 36.52848 | 28.85843 | 4703 ft | 257 kts | 199° |
| 2026-05-04 13:35 | 36.49452 | 28.84632 | 4168 ft | 248 kts | 208° |
| 2026-05-04 13:35 | 36.48015 | 28.83539 | 3789 ft | 240 kts | 232° |
| 2026-05-04 13:36 | 36.47150 | 28.81886 | 3670 ft | 219 kts | 257° |
| 2026-05-04 13:36 | 36.46898 | 28.80088 | 3559 ft | 207 kts | 279° |
| 2026-05-04 13:36 | 36.47208 | 28.78386 | 3480 ft | 200 kts | 299° |
| 2026-05-04 13:36 | 36.47980 | 28.76986 | 3402 ft | 196 kts | 318° |
| 2026-05-04 13:37 | 36.49070 | 28.75995 | 3297 ft | 194 kts | 328° |
| 2026-05-04 13:37 | 36.50202 | 28.75086 | 3197 ft | 194 kts | 327° |
| 2026-05-04 13:37 | 36.51338 | 28.74169 | 3096 ft | 195 kts | 327° |
| 2026-05-04 13:37 | 36.52121 | 28.73629 | 3027 ft | 195 kts | 338° |
| 2026-05-04 13:38 | 36.53888 | 28.73355 | 2911 ft | 189 kts | 5° |
| 2026-05-04 13:38 | 36.54730 | 28.73606 | 2873 ft | 187 kts | 10° |
| 2026-05-04 13:38 | 36.55966 | 28.74027 | 2815 ft | 184 kts | 10° |
| 2026-05-04 13:38 | 36.57202 | 28.74446 | 2643 ft | 185 kts | 10° |
| 2026-05-04 13:39 | 36.58462 | 28.74873 | 2437 ft | 188 kts | 10° |
| 2026-05-04 13:39 | 36.59699 | 28.75295 | 2159 ft | 178 kts | 11° |
| 2026-05-04 13:39 | 36.60840 | 28.75685 | 1918 ft | 162 kts | 11° |
| 2026-05-04 13:39 | 36.61863 | 28.76033 | 1721 ft | 145 kts | 11° |
| 2026-05-04 13:40 | 36.62815 | 28.76356 | 1523 ft | 141 kts | 11° |
| 2026-05-04 13:40 | 36.63749 | 28.76672 | 1347 ft | 138 kts | 9° |
| 2026-05-04 13:40 | 36.64663 | 28.76983 | 1171 ft | 135 kts | 10° |
| 2026-05-04 13:40 | 36.65566 | 28.77289 | 977 ft | 135 kts | 10° |
| 2026-05-04 13:41 | 36.66472 | 28.77597 | 793 ft | 135 kts | 10° |
| 2026-05-04 13:41 | 36.67370 | 28.77904 | 614 ft | 134 kts | 11° |
| 2026-05-04 13:41 | 36.68274 | 28.78212 | 446 ft | 133 kts | 9° |
| 2026-05-04 13:42 | 36.70077 | 28.78828 | 72 ft | 133 kts | 11° |
| 2026-05-04 13:42 | 36.70939 | 28.79107 | 13 ft | 114 kts | 15° |
| 2026-05-04 13:42 | 36.71525 | 28.79321 | 12 ft | 65 kts | 15° |
| 2026-05-04 13:42 | 36.71790 | 28.79414 | 12 ft | 22 kts | 16° |
| 2026-05-04 13:43 | 36.71925 | 28.79431 | 12 ft | 10 kts | 359° |
| 2026-05-04 13:43 | 36.72002 | 28.79424 | 12 ft | 12 kts | 348° |
| 2026-05-04 13:43 | 36.72082 | 28.79400 | 13 ft | 12 kts | 345° |
| 2026-05-04 13:43 | 36.72128 | 28.79385 | 12 ft | 7 kts | 345° |
| 2026-05-04 13:44 | 36.72182 | 28.79365 | 12 ft | 9 kts | 343° |
| 2026-05-04 13:44 | 36.72245 | 28.79357 | 12 ft | 7 kts | 10° |
| 2026-05-04 13:44 | 36.72278 | 28.79321 | 12 ft | 8 kts | 286° |
| 2026-05-04 13:44 | 36.72295 | 28.79243 | 12 ft | 10 kts | 283° |
| 2026-05-04 13:45 | 36.72302 | 28.79203 | 12 ft | 5 kts | 283° |
| 2026-05-04 13:45 | 36.72297 | 28.79156 | 13 ft | 7 kts | 222° |
| 2026-05-04 13:45 | 36.72245 | 28.79134 | 12 ft | 9 kts | 195° |
| 2026-05-04 13:45 | 36.72208 | 28.79121 | 12 ft | 7 kts | 195° |
| 2026-05-04 13:46 | 36.72178 | 28.79111 | 12 ft | 3 kts | 195° |
| 2026-05-04 13:46 | 36.72146 | 28.79099 | 12 ft | 6 kts | 201° |
| 2026-05-04 13:46 | 36.72142 | 28.79049 | 14 ft | 7 kts | 285° |
| 2026-05-04 13:46 | 36.72149 | 28.79017 | 12 ft | 0 kts | 286° |